createdAt,value
2022-09-23T00:00:24.784Z,5.82
2022-09-23T00:03:29.103Z,6.55
2022-09-23T00:06:31.680Z,6.65
2022-09-23T00:09:34.743Z,6.70
2022-09-23T00:12:37.395Z,7.00
2022-09-23T00:15:40.331Z,7.03
2022-09-23T00:18:43.533Z,6.70
2022-09-23T00:21:46.257Z,6.70
2022-09-23T00:24:49.221Z,8.23
2022-09-23T00:27:52.070Z,6.37
2022-09-23T00:30:54.721Z,7.18
2022-09-23T00:34:01.688Z,5.90
2022-09-23T00:37:04.341Z,7.93
2022-09-23T00:40:08.946Z,6.33
2022-09-23T00:43:17.547Z,7.93
2022-09-23T00:46:40.463Z,6.03
2022-09-23T00:49:44.865Z,5.78
2022-09-23T00:52:49.157Z,6.10
2022-09-23T00:55:55.431Z,5.60
2022-09-23T00:58:58.731Z,5.00
2022-09-23T01:02:02.727Z,5.30
2022-09-23T01:05:07.463Z,6.30
2022-09-23T01:08:11.619Z,7.30
2022-09-23T01:11:23.606Z,6.23
2022-09-23T01:14:47.710Z,5.93
2022-09-23T01:18:15.230Z,5.85
2022-09-23T01:22:05.036Z,5.60
2022-09-23T01:25:40.839Z,6.35
2022-09-23T01:28:43.262Z,6.50
2022-09-23T01:31:55.306Z,7.40
2022-09-23T01:34:57.828Z,5.30
2022-09-23T01:38:06.547Z,7.72
2022-09-23T01:41:21.487Z,6.85
2022-09-23T01:44:30.957Z,6.93
2022-09-23T01:47:37.753Z,5.75
2022-09-23T01:50:58.860Z,6.12
2022-09-23T01:54:07.443Z,6.87
2022-09-23T01:57:18.865Z,9.35
2022-09-23T02:00:23.163Z,5.80
2022-09-23T02:03:32.385Z,7.65
2022-09-23T02:06:42.656Z,5.82
2022-09-23T02:09:49.468Z,6.72
2022-09-23T02:12:57.350Z,6.28
2022-09-23T02:16:04.996Z,5.60
2022-09-23T02:19:11.653Z,6.45
2022-09-23T02:22:24.105Z,5.85
2022-09-23T02:25:34.037Z,4.90
2022-09-23T02:28:57.374Z,6.07
2022-09-23T02:32:12.643Z,6.50
2022-09-23T02:35:18.144Z,6.78
2022-09-23T02:38:34.407Z,5.22
2022-09-23T02:41:52.092Z,5.90
2022-09-23T02:44:55.063Z,6.43
2022-09-23T02:48:04.031Z,5.53
2022-09-23T02:51:06.816Z,6.10
2022-09-23T02:54:14.959Z,6.30
2022-09-23T02:57:17.441Z,6.85
2022-09-23T03:00:20.610Z,6.75
2022-09-23T03:03:53.800Z,6.30
2022-09-23T03:07:02.563Z,7.65
2022-09-23T03:10:14.969Z,8.55
2022-09-23T03:13:48.068Z,7.85
2022-09-23T03:16:53.569Z,6.43
2022-09-23T03:20:34.248Z,6.17
2022-09-23T03:23:39.602Z,7.07
2022-09-23T03:26:45.800Z,6.25
2022-09-23T03:29:50.068Z,6.35
2022-09-23T03:32:53.332Z,7.40
2022-09-23T03:36:35.459Z,7.37
2022-09-23T03:40:03.255Z,7.72
2022-09-23T03:43:05.859Z,7.07
2022-09-23T03:46:08.750Z,7.50
2022-09-23T03:49:27.343Z,6.45
2022-09-23T03:52:30.340Z,6.53
2022-09-23T03:55:33.543Z,6.80
2022-09-23T03:58:36.329Z,6.03
2022-09-23T04:01:38.939Z,8.65
2022-09-23T04:04:41.975Z,6.18
2022-09-23T04:07:44.548Z,6.97
2022-09-23T04:10:49.798Z,7.95
2022-09-23T04:13:55.958Z,7.15
2022-09-23T04:16:58.982Z,6.68
2022-09-23T04:20:01.876Z,6.20
2022-09-23T04:23:04.840Z,5.53
2022-09-23T04:26:07.403Z,6.22
2022-09-23T04:29:11.495Z,5.85
2022-09-23T04:32:14.043Z,6.57
2022-09-23T04:35:17.117Z,5.78
2022-09-23T04:38:19.968Z,6.33
2022-09-23T04:41:23.066Z,6.93
2022-09-23T04:44:28.105Z,6.22
2022-09-23T04:47:32.164Z,5.72
2022-09-23T04:50:34.674Z,6.45
2022-09-23T04:53:39.903Z,6.50
2022-09-23T04:56:42.830Z,6.90
2022-09-23T04:59:47.128Z,7.47
2022-09-23T05:02:50.551Z,6.07
2022-09-23T05:05:54.633Z,5.82
2022-09-23T05:08:58.535Z,6.50
2022-09-23T05:12:02.132Z,6.18
2022-09-23T05:15:05.203Z,8.02
2022-09-23T05:18:07.967Z,6.30
2022-09-23T05:21:12.203Z,9.68
2022-09-23T05:24:16.723Z,6.73
2022-09-23T05:27:19.946Z,4.62
2022-09-23T05:30:22.914Z,5.03
2022-09-23T05:33:25.361Z,5.82
2022-09-23T05:36:32.124Z,5.20
2022-09-23T05:39:38.243Z,4.80
2022-09-23T05:42:41.220Z,5.40
2022-09-23T05:45:43.685Z,5.20
2022-09-23T05:48:47.391Z,5.97
2022-09-23T05:51:49.842Z,6.05
2022-09-23T05:54:52.718Z,5.37
2022-09-23T05:57:55.178Z,5.05
2022-09-23T06:00:58.046Z,6.05
2022-09-23T06:04:02.612Z,5.15
2022-09-23T06:07:05.476Z,5.60
2022-09-23T06:10:08.722Z,7.13
2022-09-23T06:13:11.990Z,5.97
2022-09-23T06:16:16.213Z,8.75
2022-09-23T06:19:19.271Z,14.82
2022-09-23T06:22:24.751Z,9.88
2022-09-23T06:25:27.209Z,9.23
2022-09-23T06:28:36.182Z,7.97
2022-09-23T06:31:41.243Z,6.78
2022-09-23T06:34:51.514Z,6.10
2022-09-23T06:37:54.983Z,5.90
2022-09-23T06:40:58.664Z,6.83
2022-09-23T06:44:01.307Z,6.82
2022-09-23T06:47:04.136Z,6.32
2022-09-23T06:50:07.715Z,6.72
2022-09-23T06:53:10.391Z,6.37
2022-09-23T06:56:12.950Z,5.30
2022-09-23T06:59:17.062Z,6.05
2022-09-23T07:02:19.691Z,9.07
2022-09-23T07:05:22.843Z,7.47
2022-09-23T07:08:27.263Z,8.88
2022-09-23T07:11:30.277Z,9.47
2022-09-23T07:14:32.861Z,6.80
2022-09-23T07:17:35.727Z,7.18
2022-09-23T07:20:38.415Z,6.70
2022-09-23T07:23:48.114Z,5.85
2022-09-23T07:26:50.575Z,5.90
2022-09-23T07:29:53.524Z,6.97
2022-09-23T07:32:56.074Z,7.05
2022-09-23T07:35:58.909Z,6.05
2022-09-23T07:39:03.404Z,7.65
2022-09-23T07:42:06.615Z,6.80
2022-09-23T07:45:09.333Z,7.10
2022-09-23T07:48:12.204Z,5.70
2022-09-23T07:51:20.417Z,6.78
2022-09-23T07:54:25.506Z,5.65
2022-09-23T07:57:27.983Z,5.40
2022-09-23T08:00:31.238Z,6.10
2022-09-23T08:03:35.118Z,5.70
2022-09-23T08:06:42.025Z,5.70
2022-09-23T08:09:45.426Z,4.97
2022-09-23T08:12:48.926Z,4.63
2022-09-23T08:15:55.325Z,5.85
2022-09-23T08:18:58.169Z,5.60
2022-09-23T08:22:00.938Z,5.32
2022-09-23T08:25:03.829Z,4.32
2022-09-23T08:28:07.214Z,6.43
2022-09-23T08:31:09.793Z,5.10
2022-09-23T08:34:13.342Z,5.12
2022-09-23T08:37:15.831Z,5.78
2022-09-23T08:40:19.116Z,5.22
2022-09-23T08:43:27.386Z,4.73
2022-09-23T08:46:37.693Z,5.05
2022-09-23T08:50:18.724Z,4.53
2022-09-23T08:53:26.234Z,4.65
2022-09-23T08:56:28.992Z,6.45
2022-09-23T08:59:37.186Z,4.30
2022-09-23T09:02:39.909Z,4.90
2022-09-23T09:05:50.884Z,4.03
2022-09-23T09:09:00.956Z,5.30
2022-09-23T09:12:52.864Z,5.43
2022-09-23T09:16:06.224Z,4.47
2022-09-23T09:19:17.167Z,5.50
2022-09-23T09:22:33.266Z,5.82
2022-09-23T09:25:49.543Z,4.50
2022-09-23T09:29:34.418Z,5.12
2022-09-23T09:33:04.931Z,5.13
2022-09-23T09:36:15.413Z,4.90
2022-09-23T09:39:21.857Z,5.82
2022-09-23T09:42:41.803Z,5.70
2022-09-23T09:46:17.600Z,4.80
2022-09-23T09:49:23.287Z,5.87
2022-09-23T09:52:28.815Z,6.25
2022-09-23T09:55:31.330Z,5.35
2022-09-23T09:58:41.660Z,7.15
2022-09-23T10:01:44.293Z,9.05
2022-09-23T10:04:55.347Z,5.93
2022-09-23T10:08:26.616Z,6.18
2022-09-23T10:11:30.005Z,6.37
2022-09-23T10:14:32.967Z,5.03
2022-09-23T10:17:36.368Z,5.40
2022-09-23T10:20:39.127Z,4.80
2022-09-23T10:23:44.772Z,4.82
2022-09-23T10:26:58.311Z,5.75
2022-09-23T10:30:06.213Z,5.15
2022-09-23T10:33:27.996Z,5.28
2022-09-23T10:36:32.719Z,6.80
2022-09-23T10:39:54.213Z,4.35
2022-09-23T10:43:53.571Z,4.80
2022-09-23T10:47:04.641Z,5.45
2022-09-23T10:50:20.785Z,4.80
2022-09-23T10:53:42.056Z,4.60
2022-09-23T10:57:28.315Z,5.93
2022-09-23T11:00:37.940Z,5.60
2022-09-23T11:03:52.274Z,4.78
2022-09-23T11:07:08.285Z,6.53
2022-09-23T11:10:45.465Z,6.20
2022-09-23T11:14:07.736Z,7.50
2022-09-23T11:17:51.744Z,5.22
2022-09-23T11:21:04.691Z,6.95
2022-09-23T11:24:12.194Z,10.57
2022-09-23T11:27:15.012Z,8.53
2022-09-23T11:30:21.168Z,4.62
2022-09-23T11:33:31.506Z,6.87
2022-09-23T11:36:41.574Z,6.05
2022-09-23T11:40:04.627Z,6.50
2022-09-23T11:43:18.762Z,4.83
2022-09-23T11:46:38.768Z,5.15
2022-09-23T11:49:48.732Z,6.00
2022-09-23T11:53:03.117Z,4.53
2022-09-23T11:56:12.675Z,5.43
2022-09-23T11:59:35.061Z,7.83
2022-09-23T12:03:18.515Z,8.25
2022-09-23T12:06:43.911Z,5.03
2022-09-23T12:10:03.616Z,6.40
2022-09-23T12:13:47.461Z,7.82
2022-09-23T12:16:56.098Z,13.53
2022-09-23T12:20:19.114Z,8.98
2022-09-23T12:23:27.729Z,8.45
2022-09-23T12:26:32.522Z,5.62
2022-09-23T12:29:35.315Z,6.47
2022-09-23T12:32:41.246Z,6.33
2022-09-23T12:35:45.809Z,5.43
2022-09-23T12:38:51.340Z,6.03
2022-09-23T12:41:58.749Z,6.03
2022-09-23T12:45:31.523Z,6.25
2022-09-23T12:48:48.153Z,6.93
2022-09-23T12:52:13.525Z,6.43
2022-09-23T12:55:24.590Z,6.50
2022-09-23T12:58:42.486Z,5.20
2022-09-23T13:01:45.135Z,6.72
2022-09-23T13:05:23.318Z,8.63
2022-09-23T13:08:29.118Z,6.43
2022-09-23T13:11:32.635Z,6.70
2022-09-23T13:14:37.864Z,5.30
2022-09-23T13:17:40.704Z,5.22
2022-09-23T13:20:43.163Z,5.33
2022-09-23T13:24:31.298Z,5.70
2022-09-23T13:27:34.242Z,5.20
2022-09-23T13:30:48.056Z,4.65
2022-09-23T13:33:54.595Z,5.97
2022-09-23T13:36:57.407Z,5.63
2022-09-23T13:40:24.014Z,5.35
2022-09-23T13:43:48.840Z,6.72
2022-09-23T13:46:54.553Z,5.78
2022-09-23T13:49:57.625Z,14.73
2022-09-23T13:53:04.108Z,8.83
2022-09-23T13:56:13.037Z,7.78
2022-09-23T13:59:21.731Z,9.70
2022-09-23T14:02:25.836Z,6.62
2022-09-23T14:05:35.491Z,6.70
2022-09-23T14:08:49.884Z,5.97
2022-09-23T14:11:53.480Z,5.12
2022-09-23T14:14:57.183Z,5.75
2022-09-23T14:18:06.377Z,4.90
2022-09-23T14:21:27.323Z,5.80
2022-09-23T14:24:30.111Z,4.50
2022-09-23T14:27:36.167Z,4.75
2022-09-23T14:30:39.065Z,7.03
2022-09-23T14:33:42.890Z,6.37
2022-09-23T14:37:08.822Z,4.87
2022-09-23T14:40:15.222Z,4.83
2022-09-23T14:43:28.607Z,6.12
2022-09-23T14:46:35.999Z,4.57
2022-09-23T14:49:58.759Z,5.93
2022-09-23T14:53:01.347Z,4.28
2022-09-23T14:56:07.154Z,3.60
2022-09-23T14:59:24.885Z,4.05
2022-09-23T15:02:39.319Z,4.43
2022-09-23T15:05:46.789Z,3.92
2022-09-23T15:08:54.619Z,5.00
2022-09-23T15:12:02.678Z,6.30
2022-09-23T15:15:06.112Z,5.50
2022-09-23T15:18:21.429Z,4.40
2022-09-23T15:21:25.886Z,4.45
2022-09-23T15:24:46.611Z,5.00
2022-09-23T15:28:25.243Z,5.40
2022-09-23T15:31:27.810Z,5.43
2022-09-23T15:34:31.948Z,5.28
2022-09-23T15:37:36.403Z,4.65
2022-09-23T15:40:40.446Z,4.60
2022-09-23T15:43:43.152Z,5.00
2022-09-23T15:46:47.073Z,5.65
2022-09-23T15:49:49.591Z,4.90
2022-09-23T15:52:52.450Z,4.57
2022-09-23T15:55:55.104Z,4.68
2022-09-23T15:58:58.053Z,4.47
2022-09-23T16:02:05.763Z,4.72
2022-09-23T16:05:26.640Z,6.10
2022-09-23T16:08:33.200Z,4.68
2022-09-23T16:11:38.258Z,5.12
2022-09-23T16:14:40.715Z,4.53
2022-09-23T16:17:44.795Z,5.53
2022-09-23T16:20:48.056Z,5.30
2022-09-23T16:23:51.507Z,4.97
2022-09-23T16:26:59.813Z,4.47
2022-09-23T16:30:03.280Z,4.87
2022-09-23T16:33:05.753Z,5.35
2022-09-23T16:36:14.028Z,4.50
2022-09-23T16:39:16.822Z,7.20
2022-09-23T16:42:19.654Z,7.07
2022-09-23T16:45:23.291Z,5.30
2022-09-23T16:48:26.104Z,5.40
2022-09-23T16:51:30.853Z,5.62
2022-09-23T16:54:37.341Z,4.20
2022-09-23T16:57:40.534Z,5.18
2022-09-23T17:01:01.602Z,6.57
2022-09-23T17:04:04.255Z,7.07
2022-09-23T17:07:07.066Z,6.30
2022-09-23T17:10:10.204Z,16.37
2022-09-23T17:13:15.741Z,14.68
2022-09-23T17:16:27.276Z,19.40
2022-09-23T17:19:30.184Z,30.58
2022-09-23T17:22:33.644Z,24.20
2022-09-23T17:25:36.444Z,18.17
2022-09-23T17:28:39.289Z,12.57
2022-09-23T17:31:42.729Z,11.90
2022-09-23T17:34:45.240Z,13.35
2022-09-23T17:37:48.060Z,9.00
2022-09-23T17:40:52.320Z,8.20
2022-09-23T17:43:57.159Z,7.70
2022-09-23T17:47:00.800Z,7.13
2022-09-23T17:50:04.025Z,6.72
2022-09-23T17:53:06.494Z,8.13
2022-09-23T17:56:20.024Z,6.62
2022-09-23T17:59:22.458Z,5.90
2022-09-23T18:02:25.579Z,6.70
2022-09-23T18:05:28.538Z,6.37
2022-09-23T18:08:31.348Z,11.02
2022-09-23T18:11:37.061Z,12.70
2022-09-23T18:14:39.754Z,9.02
2022-09-23T18:17:42.609Z,7.33
2022-09-23T18:20:45.129Z,7.07
2022-09-23T18:23:48.279Z,6.93
2022-09-23T18:26:51.072Z,8.18
2022-09-23T18:29:56.430Z,7.80
2022-09-23T18:32:59.825Z,7.60
2022-09-23T18:36:04.087Z,5.18
2022-09-23T18:39:07.002Z,5.57
2022-09-23T18:42:09.991Z,6.32
2022-09-23T18:45:12.602Z,5.90
2022-09-23T18:48:33.770Z,7.70
2022-09-23T18:51:38.686Z,8.90
2022-09-23T18:54:42.573Z,9.55
2022-09-23T18:57:47.808Z,8.98
2022-09-23T19:00:51.418Z,8.43
2022-09-23T19:03:58.416Z,11.63
2022-09-23T19:07:01.402Z,9.15
2022-09-23T19:10:04.484Z,10.48
2022-09-23T19:13:07.284Z,10.23
2022-09-23T19:16:16.695Z,12.18
2022-09-23T19:19:19.839Z,7.63
2022-09-23T19:22:22.350Z,8.23
2022-09-23T19:25:28.229Z,8.48
2022-09-23T19:28:31.054Z,9.82
2022-09-23T19:31:42.133Z,8.00
2022-09-23T19:34:45.845Z,9.60
2022-09-23T19:37:49.334Z,9.05
2022-09-23T19:40:52.204Z,8.57
2022-09-23T19:43:55.635Z,7.78
2022-09-23T19:46:58.169Z,6.87
2022-09-23T19:50:01.082Z,9.50
2022-09-23T19:53:07.473Z,9.18
2022-09-23T19:56:10.384Z,12.30
2022-09-23T19:59:17.764Z,7.00
2022-09-23T20:02:23.995Z,7.70
2022-09-23T20:05:30.050Z,7.97
2022-09-23T20:08:35.924Z,7.90
2022-09-23T20:11:38.875Z,9.05
2022-09-23T20:14:41.323Z,9.90
2022-09-23T20:17:44.438Z,9.73
2022-09-23T20:20:54.192Z,10.63
2022-09-23T20:23:57.901Z,8.98
2022-09-23T20:27:09.344Z,9.07
2022-09-23T20:30:12.446Z,10.13
2022-09-23T20:33:15.205Z,9.70
2022-09-23T20:36:18.482Z,11.30
2022-09-23T20:39:21.625Z,11.63
2022-09-23T20:42:24.518Z,10.43
2022-09-23T20:45:27.011Z,11.75
2022-09-23T20:48:30.919Z,11.82
2022-09-23T20:51:33.653Z,10.17
2022-09-23T20:54:38.868Z,10.40
2022-09-23T20:57:41.947Z,8.68
2022-09-23T21:00:44.982Z,9.85
2022-09-23T21:03:49.268Z,14.02
2022-09-23T21:06:52.181Z,11.23
2022-09-23T21:09:54.697Z,11.32
2022-09-23T21:12:57.698Z,10.02
2022-09-23T21:16:04.445Z,8.75
2022-09-23T21:19:08.035Z,10.52
2022-09-23T21:22:10.559Z,10.80
2022-09-23T21:25:27.355Z,10.00
2022-09-23T21:28:41.290Z,13.73
2022-09-23T21:31:44.214Z,10.02
2022-09-23T21:34:46.948Z,12.40
2022-09-23T21:37:49.781Z,14.00
2022-09-23T21:40:59.445Z,12.37
2022-09-23T21:44:04.619Z,9.27
2022-09-23T21:47:07.313Z,10.63
2022-09-23T21:50:10.251Z,10.95
2022-09-23T21:53:12.705Z,15.23
2022-09-23T21:56:21.704Z,14.52
2022-09-23T21:59:24.234Z,12.70
2022-09-23T22:02:27.755Z,18.62
2022-09-23T22:05:30.548Z,18.05
2022-09-23T22:08:36.824Z,15.90
2022-09-23T22:11:59.507Z,11.80
2022-09-23T22:15:02.074Z,9.55
2022-09-23T22:18:05.466Z,12.63
2022-09-23T22:21:08.165Z,11.15
2022-09-23T22:24:12.179Z,13.47
2022-09-23T22:27:16.963Z,11.75
2022-09-23T22:30:38.372Z,11.85
2022-09-23T22:33:40.851Z,11.35
2022-09-23T22:36:43.580Z,10.93
2022-09-23T22:39:46.301Z,10.30
2022-09-23T22:42:49.742Z,13.80
2022-09-23T22:45:52.200Z,14.10
2022-09-23T22:48:54.980Z,13.20
2022-09-23T22:51:57.543Z,12.52
2022-09-23T22:55:00.535Z,12.93
2022-09-23T22:58:21.206Z,12.65
2022-09-23T23:01:25.975Z,13.30
2022-09-23T23:04:29.836Z,14.35
2022-09-23T23:07:34.161Z,16.27
2022-09-23T23:10:37.372Z,16.43
2022-09-23T23:13:43.755Z,16.37
2022-09-23T23:16:47.004Z,15.50
2022-09-23T23:19:50.846Z,15.18
2022-09-23T23:22:53.441Z,15.80
2022-09-23T23:25:56.183Z,15.13
2022-09-23T23:28:59.688Z,15.52
2022-09-23T23:32:02.596Z,18.95
2022-09-23T23:35:06.111Z,15.32
2022-09-23T23:38:12.517Z,18.77
2022-09-23T23:41:17.292Z,17.30
2022-09-23T23:44:20.040Z,17.27
2022-09-23T23:47:23.376Z,14.73
2022-09-23T23:50:26.502Z,13.32
2022-09-23T23:53:30.840Z,15.88
2022-09-23T23:56:33.584Z,15.57
2022-09-23T23:59:36.003Z,17.12
